createdAt,value
2019-02-18T00:01:36.567Z,38.20
2019-02-18T00:04:05.591Z,35.73
2019-02-18T00:06:34.654Z,39.30
2019-02-18T00:09:04.843Z,40.30
2019-02-18T00:11:33.883Z,39.73
2019-02-18T00:14:02.942Z,36.50
2019-02-18T00:16:31.972Z,36.07
2019-02-18T00:19:00.982Z,35.37
2019-02-18T00:21:30.379Z,37.73
2019-02-18T00:23:59.434Z,37.67
2019-02-18T00:26:28.495Z,40.00
2019-02-18T00:28:57.573Z,40.77
2019-02-18T00:31:26.590Z,41.40
2019-02-18T00:33:55.457Z,38.93
2019-02-18T00:36:24.504Z,38.60
2019-02-18T00:38:53.739Z,42.10
2019-02-18T00:41:22.813Z,41.23
2019-02-18T00:43:51.820Z,43.07
2019-02-18T00:46:20.895Z,40.10
2019-02-18T00:48:50.281Z,41.60
2019-02-18T00:51:19.312Z,42.23
2019-02-18T00:53:48.352Z,39.70
2019-02-18T00:56:17.367Z,39.27
2019-02-18T00:58:46.423Z,43.63
2019-02-18T01:01:15.509Z,40.30
2019-02-18T01:03:44.848Z,38.40
2019-02-18T01:06:13.902Z,36.37
2019-02-18T01:08:42.981Z,40.80
2019-02-18T01:11:11.995Z,42.20
2019-02-18T01:13:41.007Z,38.40
2019-02-18T01:16:10.050Z,37.40
2019-02-18T01:18:39.075Z,36.77
2019-02-18T01:21:08.124Z,36.17
2019-02-18T01:23:37.058Z,38.80
2019-02-18T01:26:06.067Z,38.43
2019-02-18T01:28:35.125Z,38.67
2019-02-18T01:31:04.474Z,37.80
2019-02-18T01:33:33.424Z,39.10
2019-02-18T01:36:02.821Z,40.00
2019-02-18T01:38:32.214Z,37.90
2019-02-18T01:41:01.247Z,35.07
2019-02-18T01:43:30.302Z,38.23
2019-02-18T01:45:59.350Z,38.30
2019-02-18T01:48:28.407Z,39.67
2019-02-18T01:50:57.422Z,40.47
2019-02-18T01:53:26.479Z,41.80
2019-02-18T01:55:55.518Z,38.67
2019-02-18T01:58:24.539Z,42.23
2019-02-18T02:00:53.965Z,38.27
2019-02-18T02:03:25.162Z,36.73
2019-02-18T02:05:53.688Z,37.90
2019-02-18T02:08:22.702Z,36.60
2019-02-18T02:10:51.754Z,37.90
2019-02-18T02:13:28.392Z,37.00
2019-02-18T02:15:58.146Z,39.10
2019-02-18T02:18:27.434Z,42.23
2019-02-18T02:20:56.791Z,39.03
2019-02-18T02:23:25.850Z,41.80
2019-02-18T02:25:54.893Z,40.43
2019-02-18T02:28:23.946Z,42.10
2019-02-18T02:30:53.004Z,37.87
2019-02-18T02:33:22.046Z,37.80
2019-02-18T02:35:51.124Z,41.30
2019-02-18T02:38:20.152Z,40.13
2019-02-18T02:40:49.200Z,41.80
2019-02-18T02:43:18.277Z,42.73
2019-02-18T02:45:47.309Z,39.60
2019-02-18T02:48:17.162Z,39.60
2019-02-18T02:50:46.223Z,42.27
2019-02-18T02:53:15.244Z,41.77
2019-02-18T02:55:44.340Z,42.23
2019-02-18T02:58:13.410Z,40.07
2019-02-18T03:00:42.727Z,40.67
2019-02-18T03:03:11.781Z,40.33
2019-02-18T03:05:40.794Z,40.90
2019-02-18T03:08:19.976Z,39.40
2019-02-18T03:10:40.826Z,42.57
2019-02-18T03:13:10.247Z,38.67
2019-02-18T03:15:39.309Z,40.00
2019-02-18T03:18:08.347Z,37.57
2019-02-18T03:20:37.428Z,40.60
2019-02-18T03:23:06.479Z,38.87
2019-02-18T03:25:35.661Z,40.07
2019-02-18T03:28:44.169Z,39.17
2019-02-18T03:31:20.577Z,40.10
2019-02-18T03:33:55.919Z,39.30
2019-02-18T03:36:24.952Z,43.27
2019-02-18T03:38:53.940Z,40.90
2019-02-18T03:41:22.983Z,38.20
2019-02-18T03:43:52.036Z,39.60
2019-02-18T03:46:20.981Z,41.90
2019-02-18T03:48:49.990Z,38.67
2019-02-18T03:51:18.979Z,37.00
2019-02-18T03:53:48.334Z,39.03
2019-02-18T03:56:17.397Z,37.97
2019-02-18T03:58:46.440Z,38.13
2019-02-18T04:01:15.917Z,37.13
2019-02-18T04:03:44.902Z,35.10
2019-02-18T04:06:14.269Z,37.60
2019-02-18T04:08:43.569Z,37.90
2019-02-18T04:11:12.831Z,39.23
2019-02-18T04:13:41.848Z,38.43
2019-02-18T04:16:10.865Z,39.07
2019-02-18T04:18:39.872Z,39.57
2019-02-18T04:21:08.787Z,39.53
2019-02-18T04:23:37.821Z,36.93
2019-02-18T04:26:06.840Z,36.60
2019-02-18T04:28:35.908Z,38.17
2019-02-18T04:31:05.216Z,37.93
2019-02-18T04:33:34.233Z,37.43
2019-02-18T04:36:03.239Z,39.70
2019-02-18T04:38:32.609Z,36.67
2019-02-18T04:41:01.894Z,38.70
2019-02-18T04:43:30.843Z,38.33
2019-02-18T04:45:59.897Z,39.33
2019-02-18T04:48:28.842Z,39.70
2019-02-18T04:50:57.904Z,39.40
2019-02-18T04:53:26.982Z,39.10
2019-02-18T04:55:56.121Z,42.27
2019-02-18T04:58:25.191Z,38.60
2019-02-18T05:00:54.259Z,36.73
2019-02-18T05:03:23.588Z,38.83
2019-02-18T05:05:52.639Z,39.33
2019-02-18T05:08:21.999Z,38.77
2019-02-18T05:10:50.975Z,38.70
2019-02-18T05:13:20.253Z,38.70
2019-02-18T05:15:49.343Z,40.13
2019-02-18T05:18:18.357Z,40.33
2019-02-18T05:20:47.404Z,38.07
2019-02-18T05:23:16.365Z,40.20
2019-02-18T05:25:45.384Z,40.27
2019-02-18T05:28:14.434Z,38.20
2019-02-18T05:30:43.746Z,39.57
2019-02-18T05:33:12.806Z,38.70
2019-02-18T05:35:41.821Z,39.20
2019-02-18T05:38:11.275Z,40.70
2019-02-18T05:40:40.295Z,41.07
2019-02-18T05:43:09.329Z,40.10
2019-02-18T05:45:38.747Z,39.77
2019-02-18T05:48:07.763Z,38.37
2019-02-18T05:50:37.028Z,37.40
2019-02-18T05:53:06.092Z,40.70
2019-02-18T05:55:35.109Z,37.00
2019-02-18T05:58:04.122Z,39.10
2019-02-18T06:00:33.158Z,41.57
2019-02-18T06:03:02.184Z,39.30
2019-02-18T06:05:31.498Z,41.27
2019-02-18T06:08:00.506Z,38.87
2019-02-18T06:10:29.559Z,38.13
2019-02-18T06:12:58.868Z,35.83
2019-02-18T06:15:27.910Z,36.73
2019-02-18T06:17:56.939Z,37.83
2019-02-18T06:20:26.042Z,39.13
2019-02-18T06:22:54.970Z,37.60
2019-02-18T06:25:24.049Z,36.90
2019-02-18T06:27:53.040Z,39.70
2019-02-18T06:30:22.027Z,36.67
2019-02-18T06:32:51.058Z,38.97
2019-02-18T06:35:20.080Z,39.10
2019-02-18T06:37:49.444Z,38.33
2019-02-18T06:40:18.474Z,39.03
2019-02-18T06:42:47.490Z,36.90
2019-02-18T06:45:35.524Z,37.03
2019-02-18T06:48:29.701Z,39.67
2019-02-18T06:50:59.038Z,40.43
2019-02-18T06:53:28.048Z,38.80
2019-02-18T06:55:57.433Z,39.23
2019-02-18T06:58:45.867Z,37.67
2019-02-18T07:01:46.180Z,37.17
2019-02-18T07:04:26.963Z,36.47
2019-02-18T07:07:15.011Z,37.93
2019-02-18T07:09:51.558Z,35.43
2019-02-18T07:12:27.159Z,33.47
2019-02-18T07:14:56.594Z,37.90
2019-02-18T07:17:25.906Z,37.30
2019-02-18T07:19:54.851Z,38.83
2019-02-18T07:22:23.945Z,38.10
2019-02-18T07:24:52.957Z,39.00
2019-02-18T07:27:22.002Z,37.90
2019-02-18T07:29:51.052Z,36.53
2019-02-18T07:32:21.042Z,39.40
2019-02-18T07:34:50.021Z,38.03
2019-02-18T07:37:19.038Z,39.30
2019-02-18T07:39:48.091Z,37.03
2019-02-18T07:42:17.328Z,36.77
2019-02-18T07:44:46.407Z,36.70
2019-02-18T07:47:15.346Z,35.50
2019-02-18T07:49:44.659Z,37.60
2019-02-18T07:52:13.716Z,35.03
2019-02-18T07:54:42.726Z,36.07
2019-02-18T07:57:11.744Z,36.07
2019-02-18T07:59:42.788Z,38.07
2019-02-18T08:02:11.993Z,35.80
2019-02-18T08:04:41.341Z,34.77
2019-02-18T08:07:10.409Z,39.47
2019-02-18T08:09:39.466Z,37.60
2019-02-18T08:12:08.521Z,36.03
2019-02-18T08:14:37.543Z,37.50
2019-02-18T08:17:06.590Z,37.40
2019-02-18T08:19:35.642Z,37.43
2019-02-18T08:22:04.681Z,37.53
2019-02-18T08:24:34.038Z,38.93
2019-02-18T08:27:03.083Z,37.00
2019-02-18T08:29:32.301Z,37.30
2019-02-18T08:32:01.708Z,37.90
2019-02-18T08:34:30.752Z,36.57
2019-02-18T08:36:59.814Z,34.63
2019-02-18T08:39:28.831Z,38.80
2019-02-18T08:41:57.898Z,37.10
2019-02-18T08:44:26.925Z,36.60
2019-02-18T08:46:55.988Z,38.27
2019-02-18T08:49:25.268Z,37.83
2019-02-18T08:51:54.261Z,36.47
2019-02-18T08:54:23.312Z,36.60
2019-02-18T08:56:52.336Z,35.93
2019-02-18T08:59:21.394Z,37.23
2019-02-18T09:01:50.518Z,36.20
2019-02-18T09:04:19.514Z,36.13
2019-02-18T09:06:48.459Z,36.90
2019-02-18T09:09:17.464Z,38.10
2019-02-18T09:11:46.526Z,35.43
2019-02-18T09:14:15.499Z,35.67
2019-02-18T09:16:44.948Z,33.07
2019-02-18T09:19:13.925Z,37.20
2019-02-18T09:21:43.005Z,34.83
2019-02-18T09:24:33.917Z,35.40
2019-02-18T09:27:02.996Z,37.10
2019-02-18T09:29:31.936Z,37.77
2019-02-18T09:32:00.879Z,35.40
2019-02-18T09:34:29.934Z,34.33
2019-02-18T09:36:58.950Z,36.63
2019-02-18T09:39:31.325Z,35.60
2019-02-18T09:41:58.684Z,35.20
2019-02-18T09:44:27.747Z,35.40
2019-02-18T09:46:57.038Z,36.10
2019-02-18T09:49:26.417Z,34.07
2019-02-18T09:51:55.443Z,34.43
2019-02-18T09:54:24.426Z,35.50
2019-02-18T09:56:53.496Z,33.57
2019-02-18T09:59:22.518Z,36.17
2019-02-18T10:01:52.014Z,34.47
2019-02-18T10:04:22.688Z,33.53
2019-02-18T10:06:51.908Z,34.70
2019-02-18T10:09:20.937Z,34.90
2019-02-18T10:11:49.957Z,33.23
2019-02-18T10:14:19.028Z,35.60
2019-02-18T10:16:47.980Z,35.00
2019-02-18T10:19:16.960Z,34.77
2019-02-18T10:21:46.043Z,34.27
2019-02-18T10:24:15.074Z,35.93
2019-02-18T10:26:44.141Z,33.97
2019-02-18T10:29:13.221Z,33.10
2019-02-18T10:31:42.211Z,33.90
2019-02-18T10:34:11.229Z,31.83
2019-02-18T10:36:40.302Z,31.70
2019-02-18T10:39:09.520Z,32.20
2019-02-18T10:41:38.588Z,32.30
2019-02-18T10:44:07.629Z,32.73
2019-02-18T10:46:36.723Z,31.70
2019-02-18T10:49:18.704Z,31.57
2019-02-18T10:51:36.532Z,31.57
2019-02-18T10:54:06.077Z,32.40
2019-02-18T10:56:35.114Z,31.67
2019-02-18T10:59:04.176Z,31.40
2019-02-18T11:01:33.234Z,31.10
2019-02-18T11:04:02.318Z,31.60
2019-02-18T11:06:31.745Z,32.33
2019-02-18T11:09:00.826Z,32.87
2019-02-18T11:11:29.862Z,31.97
2019-02-18T11:13:58.880Z,30.07
2019-02-18T11:16:27.955Z,29.27
2019-02-18T11:18:57.254Z,30.60
2019-02-18T11:21:26.265Z,32.17
2019-02-18T11:23:55.333Z,31.43
2019-02-18T11:26:24.352Z,31.73
2019-02-18T11:28:53.344Z,30.70
2019-02-18T11:31:22.415Z,32.07
2019-02-18T11:33:51.448Z,32.73
2019-02-18T11:36:20.503Z,32.30
2019-02-18T11:38:49.520Z,31.50
2019-02-18T11:41:27.072Z,31.33
2019-02-18T11:43:49.658Z,32.77
2019-02-18T11:46:18.959Z,30.37
2019-02-18T11:48:48.041Z,28.67
2019-02-18T11:51:17.523Z,30.90
2019-02-18T11:53:46.540Z,30.63
2019-02-18T11:56:15.633Z,31.03
2019-02-18T11:58:44.695Z,32.00
2019-02-18T12:01:13.718Z,32.27
2019-02-18T12:03:42.794Z,31.87
2019-02-18T12:06:11.891Z,32.13
2019-02-18T12:08:40.920Z,32.70
2019-02-18T12:11:09.985Z,30.67
2019-02-18T12:13:39.012Z,30.87
2019-02-18T12:16:08.444Z,31.00
2019-02-18T12:18:37.467Z,31.00
2019-02-18T12:21:06.857Z,28.60
2019-02-18T12:23:35.915Z,27.80
2019-02-18T12:26:05.338Z,29.60
2019-02-18T12:28:34.287Z,28.67
2019-02-18T12:31:03.382Z,29.40
2019-02-18T12:33:32.447Z,28.17
2019-02-18T12:36:01.471Z,28.63
2019-02-18T12:38:30.531Z,28.40
2019-02-18T12:40:59.890Z,28.03
2019-02-18T12:43:29.414Z,28.33
2019-02-18T12:45:58.564Z,28.13
2019-02-18T12:48:27.625Z,26.40
2019-02-18T12:50:56.695Z,28.90
2019-02-18T12:53:25.735Z,28.23
2019-02-18T12:55:54.720Z,29.10
2019-02-18T12:58:23.806Z,29.70
2019-02-18T13:00:52.842Z,27.27
2019-02-18T13:03:22.134Z,28.67
2019-02-18T13:05:51.528Z,26.83
2019-02-18T13:08:20.403Z,28.33
2019-02-18T13:10:49.443Z,27.93
2019-02-18T13:13:18.784Z,27.50
2019-02-18T13:15:47.864Z,26.00
2019-02-18T13:18:16.812Z,27.40
2019-02-18T13:20:45.898Z,24.43
2019-02-18T13:23:14.964Z,27.00
2019-02-18T13:25:47.533Z,24.93
2019-02-18T13:28:14.734Z,24.07
2019-02-18T13:30:44.059Z,23.60
2019-02-18T13:33:13.102Z,24.53
2019-02-18T13:35:42.499Z,22.83
2019-02-18T13:38:11.806Z,22.57
2019-02-18T13:40:40.824Z,22.90
2019-02-18T13:43:09.904Z,22.53
2019-02-18T13:45:38.931Z,22.10
2019-02-18T13:48:07.964Z,23.67
2019-02-18T13:50:37.322Z,22.57
2019-02-18T13:53:06.748Z,22.80
2019-02-18T13:55:35.743Z,23.67
2019-02-18T13:58:05.466Z,24.13
2019-02-18T14:00:34.558Z,23.80
2019-02-18T14:03:03.606Z,23.83
2019-02-18T14:05:32.699Z,24.03
2019-02-18T14:08:02.031Z,23.33
2019-02-18T14:10:31.094Z,23.77
2019-02-18T14:13:00.092Z,25.57
2019-02-18T14:15:29.522Z,24.90
2019-02-18T14:17:58.558Z,25.57
2019-02-18T14:20:27.631Z,24.97
2019-02-18T14:22:56.994Z,26.90
2019-02-18T14:25:26.295Z,24.00
2019-02-18T14:27:55.355Z,25.37
2019-02-18T14:30:24.626Z,26.40
2019-02-18T14:32:53.660Z,25.70
2019-02-18T14:35:22.746Z,23.10
2019-02-18T14:37:51.979Z,25.27
2019-02-18T14:40:21.144Z,25.20
2019-02-18T14:42:50.219Z,23.80
2019-02-18T14:45:19.379Z,24.83
2019-02-18T14:47:48.445Z,22.60
2019-02-18T14:50:18.807Z,23.90
2019-02-18T14:52:48.305Z,24.60
2019-02-18T14:55:17.335Z,22.07
2019-02-18T14:57:46.406Z,22.70
2019-02-18T15:00:20.969Z,22.63
2019-02-18T15:02:51.096Z,24.20
2019-02-18T15:05:20.298Z,23.87
2019-02-18T15:07:49.327Z,22.37
2019-02-18T15:10:18.688Z,24.83
2019-02-18T15:12:47.747Z,23.63
2019-02-18T15:15:16.888Z,23.83
2019-02-18T15:17:45.954Z,24.50
2019-02-18T15:20:15.034Z,25.73
2019-02-18T15:22:44.078Z,24.30
2019-02-18T15:25:13.250Z,25.77
2019-02-18T15:27:42.268Z,23.30
2019-02-18T15:30:12.000Z,27.13
2019-02-18T15:32:41.069Z,24.03
2019-02-18T15:35:10.089Z,26.20
2019-02-18T15:37:39.265Z,24.97
2019-02-18T15:40:09.163Z,24.27
2019-02-18T15:42:42.221Z,24.83
2019-02-18T15:45:09.414Z,26.57
2019-02-18T15:47:38.611Z,27.60
2019-02-18T15:50:08.323Z,25.10
2019-02-18T15:52:37.367Z,24.30
2019-02-18T15:55:06.638Z,26.30
2019-02-18T15:57:35.642Z,26.00
2019-02-18T16:00:05.359Z,25.73
2019-02-18T16:02:34.406Z,27.37
2019-02-18T16:05:03.744Z,31.67
2019-02-18T16:07:32.810Z,31.67
2019-02-18T16:10:01.852Z,32.47
2019-02-18T16:12:30.875Z,50.23
2019-02-18T16:14:59.938Z,42.37
2019-02-18T16:17:28.895Z,37.20
2019-02-18T16:19:57.958Z,33.80
2019-02-18T16:22:26.977Z,33.77
2019-02-18T16:24:56.859Z,34.20
2019-02-18T16:27:25.891Z,39.77
2019-02-18T16:29:54.875Z,56.27
2019-02-18T16:32:23.982Z,49.50
2019-02-18T16:34:53.018Z,53.23
2019-02-18T16:37:22.594Z,42.40
2019-02-18T16:39:51.615Z,51.27
2019-02-18T16:42:20.644Z,62.70
2019-02-18T16:44:49.731Z,64.67
2019-02-18T16:47:18.674Z,58.20
2019-02-18T16:49:48.120Z,46.87
2019-02-18T16:52:17.171Z,47.23
2019-02-18T16:54:46.214Z,41.03
2019-02-18T16:57:15.302Z,36.50
2019-02-18T16:59:44.374Z,32.50
2019-02-18T17:02:13.388Z,29.93
2019-02-18T17:04:42.860Z,37.47
2019-02-18T17:07:11.876Z,47.53
2019-02-18T17:09:40.976Z,49.73
2019-02-18T17:12:10.026Z,41.40
2019-02-18T17:14:38.970Z,34.60
2019-02-18T17:17:08.027Z,32.07
2019-02-18T17:19:37.040Z,36.67
2019-02-18T17:22:06.100Z,36.73
2019-02-18T17:24:35.139Z,129.03
2019-02-18T17:27:04.211Z,287.50
2019-02-18T17:29:33.239Z,212.60
2019-02-18T17:32:02.306Z,103.33
2019-02-18T17:34:31.327Z,65.43
2019-02-18T17:37:01.517Z,48.93
2019-02-18T17:39:30.572Z,49.10
2019-02-18T17:41:59.579Z,41.43
2019-02-18T17:44:28.661Z,39.53
2019-02-18T17:46:57.669Z,39.50
2019-02-18T17:49:26.720Z,42.87
2019-02-18T17:51:56.080Z,118.60
2019-02-18T17:54:25.140Z,136.03
2019-02-18T17:56:54.160Z,162.13
2019-02-18T17:59:23.148Z,106.63
2019-02-18T18:01:52.166Z,69.47
2019-02-18T18:04:21.648Z,53.30
2019-02-18T18:06:51.003Z,67.77
2019-02-18T18:09:20.050Z,51.83
2019-02-18T18:11:49.106Z,60.70
2019-02-18T18:14:18.136Z,67.37
2019-02-18T18:16:47.142Z,80.40
2019-02-18T18:19:16.082Z,65.93
2019-02-18T18:21:45.299Z,53.20
2019-02-18T18:24:14.278Z,51.20
2019-02-18T18:26:43.291Z,45.57
2019-02-18T18:29:12.346Z,41.07
2019-02-18T18:31:41.441Z,39.07
2019-02-18T18:34:10.504Z,38.70
2019-02-18T18:36:39.792Z,39.87
2019-02-18T18:39:08.869Z,39.97
2019-02-18T18:41:37.894Z,37.43
2019-02-18T18:44:06.910Z,39.87
2019-02-18T18:46:35.979Z,100.87
2019-02-18T18:49:05.004Z,129.07
2019-02-18T18:51:34.452Z,246.40
2019-02-18T18:54:03.514Z,356.70
2019-02-18T18:56:32.571Z,373.27
2019-02-18T18:59:01.603Z,307.87
2019-02-18T19:01:30.721Z,309.53
2019-02-18T19:03:59.805Z,254.97
2019-02-18T19:06:29.145Z,254.30
2019-02-18T19:08:58.089Z,264.13
2019-02-18T19:11:27.118Z,430.90
2019-02-18T19:13:56.182Z,164.43
2019-02-18T19:16:25.173Z,270.50
2019-02-18T19:18:54.200Z,163.57
2019-02-18T19:21:23.467Z,173.77
2019-02-18T19:23:52.500Z,92.70
2019-02-18T19:26:21.498Z,63.70
2019-02-18T19:28:50.546Z,52.17
2019-02-18T19:31:19.486Z,51.97
2019-02-18T19:33:48.561Z,47.67
2019-02-18T19:36:17.635Z,49.23
2019-02-18T19:38:46.569Z,50.10
2019-02-18T19:41:15.758Z,44.67
2019-02-18T19:43:50.204Z,41.93
2019-02-18T19:46:15.750Z,46.30
2019-02-18T19:48:44.872Z,65.93
2019-02-18T19:51:13.881Z,57.07
2019-02-18T19:53:42.958Z,53.10
2019-02-18T19:56:11.986Z,53.47
2019-02-18T19:58:41.335Z,47.03
2019-02-18T20:01:10.402Z,46.07
2019-02-18T20:03:39.415Z,47.07
2019-02-18T20:06:08.536Z,42.30
2019-02-18T20:08:37.593Z,42.70
2019-02-18T20:11:07.015Z,42.63
2019-02-18T20:13:36.072Z,44.90
2019-02-18T20:16:05.139Z,42.80
2019-02-18T20:18:34.413Z,37.90
2019-02-18T20:21:03.473Z,41.67
2019-02-18T20:23:32.535Z,44.33
2019-02-18T20:26:01.554Z,45.57
2019-02-18T20:28:30.643Z,43.13
2019-02-18T20:30:59.706Z,45.50
2019-02-18T20:33:29.482Z,50.23
2019-02-18T20:35:58.497Z,49.80
2019-02-18T20:38:27.531Z,47.37
2019-02-18T20:40:56.586Z,45.73
2019-02-18T20:43:25.596Z,44.63
2019-02-18T20:45:54.696Z,47.97
2019-02-18T20:48:24.147Z,47.10
2019-02-18T20:50:53.166Z,49.33
2019-02-18T20:53:22.186Z,46.97
2019-02-18T20:55:51.242Z,48.43
2019-02-18T20:58:20.607Z,46.40
2019-02-18T21:00:49.719Z,45.80
2019-02-18T21:03:19.101Z,46.10
2019-02-18T21:05:48.121Z,49.17
2019-02-18T21:08:17.135Z,42.30
2019-02-18T21:10:46.191Z,48.27
2019-02-18T21:13:15.242Z,45.70
2019-02-18T21:15:44.246Z,48.67
2019-02-18T21:18:14.017Z,45.97
2019-02-18T21:20:43.081Z,44.57
2019-02-18T21:23:12.093Z,52.03
2019-02-18T21:25:41.194Z,50.93
2019-02-18T21:28:10.151Z,47.83
2019-02-18T21:30:39.204Z,45.50
2019-02-18T21:33:08.639Z,47.60
2019-02-18T21:35:37.661Z,48.10
2019-02-18T21:38:06.714Z,49.87
2019-02-18T21:40:36.131Z,48.90
2019-02-18T21:43:05.194Z,49.10
2019-02-18T21:45:34.594Z,52.17
2019-02-18T21:48:03.886Z,49.80
2019-02-18T21:50:35.502Z,50.43
2019-02-18T21:53:04.667Z,46.60
2019-02-18T21:55:33.713Z,46.47
2019-02-18T21:58:02.768Z,52.87
2019-02-18T22:00:31.786Z,49.10
2019-02-18T22:03:01.119Z,48.40
2019-02-18T22:05:30.135Z,51.27
2019-02-18T22:08:00.404Z,51.70
2019-02-18T22:10:29.545Z,54.20
2019-02-18T22:12:58.554Z,49.57
2019-02-18T22:15:27.650Z,45.60
2019-02-18T22:17:57.041Z,53.80
2019-02-18T22:20:26.058Z,50.93
2019-02-18T22:22:55.248Z,49.27
2019-02-18T22:25:24.287Z,50.70
2019-02-18T22:27:53.378Z,51.70
2019-02-18T22:30:22.464Z,49.03
2019-02-18T22:32:51.502Z,51.47
2019-02-18T22:35:20.517Z,48.97
2019-02-18T22:37:49.596Z,47.17
2019-02-18T22:40:18.634Z,50.40
2019-02-18T22:42:47.685Z,50.07
2019-02-18T22:45:16.757Z,48.97
2019-02-18T22:47:45.778Z,51.10
2019-02-18T22:50:15.224Z,49.13
2019-02-18T22:52:44.250Z,48.47
2019-02-18T22:55:13.472Z,52.43
2019-02-18T22:57:42.521Z,48.87
2019-02-18T23:00:25.936Z,49.20
2019-02-18T23:02:55.289Z,51.97
2019-02-18T23:05:24.346Z,56.47
2019-02-18T23:07:53.356Z,52.77
2019-02-18T23:10:22.391Z,54.57
2019-02-18T23:12:51.787Z,52.20
2019-02-18T23:15:20.855Z,51.30
2019-02-18T23:17:49.906Z,50.13
2019-02-18T23:20:18.927Z,48.30
2019-02-18T23:22:47.954Z,47.97
2019-02-18T23:25:17.229Z,49.17
2019-02-18T23:27:46.264Z,49.50
2019-02-18T23:30:15.324Z,49.17
2019-02-18T23:32:44.344Z,46.00
2019-02-18T23:35:13.671Z,47.73
2019-02-18T23:37:42.673Z,47.40
2019-02-18T23:40:11.724Z,48.93
2019-02-18T23:42:40.778Z,48.30
2019-02-18T23:45:09.803Z,46.70
2019-02-18T23:47:38.853Z,45.27
2019-02-18T23:50:07.914Z,50.00
2019-02-18T23:52:36.928Z,47.17
2019-02-18T23:55:06.319Z,49.00
2019-02-18T23:57:35.336Z,50.67
